الصفحة الرئيسية
صور الأقمار الصناعية توقعات الطقس لمدة 15 يوممناخالتوقعات البحرية إعصار برق مطارأسئلة وأجوبة النشرة الإخبارية حول
طقس : أوروبا أفريقيا أمريكا الشمالية أمريكا الجنوبية آسيا أستراليا-أوقيانوسيا آخرون
لغات جهة اتصال

مدينة همدان, إيران

دائرة عرض: 34-52-05N, خط طول: 048-33-08E, ارتفاع: 1757 m


METAR: OIHH 231000Z 22010KT 9999 SCT040 21/01 Q1017
short-TAF: فقد
long-TAF: عفا عليها الزمن (56994 ساعات)

زمن: 05:44 (01:14 UTC)

مراقبة الطقس الحالي

تاريخ و وقت الإصدار 15 ساعات و 14 دقيقة قبل الساعة 10:00 UTC  
ريح 10 kt من الجنوب
درجة الحرارة 21°C
الرطوبة 26%
ضغط 1017 hPa
الرؤية 10 km أو أكثر
غيوم متفرقة على ارتفاع 4000 ft

تغيير وحدة
المعلومات الواردة في هذا الموقع يخضع إخلاء
طقس : أوروبا أفريقيا أمريكا الشمالية أمريكا الجنوبية آسيا أستراليا-أوقيانوسيا آخرون
صور الأقمار الصناعية توقعات الطقس لمدة 15 يوممناخالتوقعات البحرية إعصار برق مطارأسئلة وأجوبة لغات جهة اتصال النشرة الإخبارية حول